createdAt,value
2023-05-08T00:00:50.792Z,2.05
2023-05-08T00:03:17.699Z,2.25
2023-05-08T00:05:44.546Z,2.17
2023-05-08T00:08:11.340Z,2.50
2023-05-08T00:10:38.115Z,2.50
2023-05-08T00:13:04.993Z,2.20
2023-05-08T00:15:31.763Z,2.22
2023-05-08T00:17:58.755Z,2.20
2023-05-08T00:20:25.604Z,3.83
2023-05-08T00:22:52.379Z,3.15
2023-05-08T00:25:19.090Z,2.50
2023-05-08T00:27:46.000Z,2.60
2023-05-08T00:30:13.698Z,2.38
2023-05-08T00:32:41.070Z,2.60
2023-05-08T00:35:08.209Z,2.60
2023-05-08T00:37:35.341Z,2.83
2023-05-08T00:40:02.553Z,2.90
2023-05-08T00:42:29.447Z,2.72
2023-05-08T00:44:56.375Z,2.60
2023-05-08T00:47:23.532Z,2.70
2023-05-08T00:49:50.482Z,2.80
2023-05-08T00:52:19.384Z,2.60
2023-05-08T00:54:49.627Z,2.70
2023-05-08T00:57:16.957Z,2.67
2023-05-08T00:59:45.549Z,2.50
2023-05-08T01:02:12.594Z,2.95
2023-05-08T01:04:39.742Z,3.25
2023-05-08T01:07:06.517Z,2.95
2023-05-08T01:09:35.924Z,2.92
2023-05-08T01:12:27.576Z,3.20
2023-05-08T01:15:00.497Z,2.92
2023-05-08T01:17:46.456Z,2.95
2023-05-08T01:20:48.582Z,2.95
2023-05-08T01:23:34.358Z,2.80
2023-05-08T01:26:38.413Z,2.80
2023-05-08T01:29:43.104Z,2.80
2023-05-08T01:32:24.999Z,2.78
2023-05-08T01:35:10.926Z,2.72
2023-05-08T01:37:50.068Z,2.80
2023-05-08T01:40:16.859Z,2.80
2023-05-08T01:42:50.973Z,2.88
2023-05-08T01:45:25.909Z,2.92
2023-05-08T01:48:03.771Z,3.63
2023-05-08T01:50:38.582Z,3.60
2023-05-08T01:53:11.141Z,3.00
2023-05-08T01:55:42.345Z,2.95
2023-05-08T01:58:11.721Z,3.08
2023-05-08T02:00:41.562Z,2.67
2023-05-08T02:03:10.909Z,2.97
2023-05-08T02:05:38.724Z,2.90
2023-05-08T02:08:09.345Z,2.83
2023-05-08T02:10:37.266Z,2.83
2023-05-08T02:13:04.983Z,2.45
2023-05-08T02:15:36.654Z,2.70
2023-05-08T02:18:07.446Z,2.60
2023-05-08T02:20:34.438Z,3.13
2023-05-08T02:23:02.674Z,3.08
2023-05-08T02:25:31.185Z,4.07
2023-05-08T02:27:59.160Z,2.60
2023-05-08T02:30:27.800Z,3.33
2023-05-08T02:32:59.612Z,2.33
2023-05-08T02:35:29.409Z,2.60
2023-05-08T02:37:58.144Z,2.33
2023-05-08T02:40:27.751Z,2.50
2023-05-08T02:42:55.648Z,2.30
2023-05-08T02:45:27.925Z,2.40
2023-05-08T02:48:20.496Z,3.05
2023-05-08T02:51:10.918Z,2.90
2023-05-08T02:53:45.464Z,2.92
2023-05-08T02:56:22.091Z,2.85
2023-05-08T02:59:19.106Z,3.30
2023-05-08T03:02:09.781Z,2.60
2023-05-08T03:04:45.145Z,2.97
2023-05-08T03:07:12.996Z,2.80
2023-05-08T03:09:50.551Z,2.65
2023-05-08T03:12:23.628Z,2.95
2023-05-08T03:15:13.525Z,3.60
2023-05-08T03:17:43.802Z,2.88
2023-05-08T03:20:15.108Z,2.80
2023-05-08T03:22:44.517Z,2.80
2023-05-08T03:25:14.106Z,3.03
2023-05-08T03:27:41.965Z,2.97
2023-05-08T03:30:09.779Z,3.42
2023-05-08T03:32:40.162Z,3.05
2023-05-08T03:35:09.313Z,3.25
2023-05-08T03:37:36.357Z,3.13
2023-05-08T03:40:03.842Z,2.80
2023-05-08T03:42:31.609Z,3.28
2023-05-08T03:45:01.007Z,3.00
2023-05-08T03:47:29.120Z,3.30
2023-05-08T03:49:57.451Z,3.20
2023-05-08T03:52:26.058Z,3.92
2023-05-08T03:54:53.571Z,3.10
2023-05-08T03:57:20.461Z,3.47
2023-05-08T04:00:00.422Z,3.20
2023-05-08T04:02:28.002Z,3.10
2023-05-08T04:05:10.545Z,3.20
2023-05-08T04:07:50.940Z,2.65
2023-05-08T04:10:29.400Z,2.88
2023-05-08T04:13:02.177Z,3.08
2023-05-08T04:15:31.673Z,3.05
2023-05-08T04:18:06.961Z,2.63
2023-05-08T04:20:34.629Z,3.20
2023-05-08T04:23:03.741Z,3.17
2023-05-08T04:25:33.685Z,3.30
2023-05-08T04:28:02.595Z,2.70
2023-05-08T04:30:31.099Z,3.00
2023-05-08T04:32:59.705Z,2.67
2023-05-08T04:35:26.936Z,3.25
2023-05-08T04:37:54.478Z,2.97
2023-05-08T04:40:21.520Z,3.35
2023-05-08T04:42:48.466Z,3.58
2023-05-08T04:45:18.703Z,3.38
2023-05-08T04:47:45.613Z,3.35
2023-05-08T04:50:12.600Z,3.67
2023-05-08T04:52:39.643Z,3.67
2023-05-08T04:55:07.368Z,3.70
2023-05-08T04:57:36.461Z,3.70
2023-05-08T05:00:05.149Z,3.58
2023-05-08T05:02:35.066Z,3.75
2023-05-08T05:05:02.313Z,3.40
2023-05-08T05:07:29.911Z,3.38
2023-05-08T05:09:57.409Z,3.25
2023-05-08T05:12:24.185Z,3.38
2023-05-08T05:14:51.034Z,3.60
2023-05-08T05:17:18.260Z,3.88
2023-05-08T05:19:45.173Z,3.60
2023-05-08T05:22:12.532Z,3.40
2023-05-08T05:24:40.003Z,3.47
2023-05-08T05:27:06.814Z,3.95
2023-05-08T05:29:33.656Z,3.97
2023-05-08T05:32:00.583Z,4.32
2023-05-08T05:34:27.482Z,3.70
2023-05-08T05:36:54.419Z,3.67
2023-05-08T05:39:21.285Z,3.58
2023-05-08T05:41:48.677Z,4.30
2023-05-08T05:44:15.829Z,3.03
2023-05-08T05:46:44.438Z,3.58
2023-05-08T05:49:12.343Z,3.38
2023-05-08T05:51:39.486Z,4.28
2023-05-08T05:54:06.436Z,3.58
2023-05-08T05:56:33.325Z,4.22
2023-05-08T05:59:00.321Z,3.58
2023-05-08T06:01:29.166Z,3.53
2023-05-08T06:03:56.851Z,3.08
2023-05-08T06:06:23.893Z,3.38
2023-05-08T06:08:50.654Z,3.17
2023-05-08T06:11:17.482Z,3.47
2023-05-08T06:13:44.483Z,3.30
2023-05-08T06:16:12.312Z,3.42
2023-05-08T06:18:39.366Z,3.75
2023-05-08T06:21:06.189Z,3.80
2023-05-08T06:23:33.153Z,4.20
2023-05-08T06:25:59.898Z,5.10
2023-05-08T06:28:27.488Z,3.92
2023-05-08T06:30:54.399Z,3.65
2023-05-08T06:33:21.316Z,3.38
2023-05-08T06:35:48.833Z,2.83
2023-05-08T06:38:15.963Z,2.75
2023-05-08T06:40:44.553Z,3.03
2023-05-08T06:43:12.326Z,2.70
2023-05-08T06:45:39.535Z,3.22
2023-05-08T06:48:07.045Z,2.50
2023-05-08T06:50:33.994Z,2.70
2023-05-08T06:53:00.699Z,2.88
2023-05-08T06:55:27.417Z,3.20
2023-05-08T06:57:57.291Z,3.03
2023-05-08T07:00:24.149Z,2.88
2023-05-08T07:02:52.313Z,2.92
2023-05-08T07:05:19.993Z,3.13
2023-05-08T07:07:47.094Z,3.00
2023-05-08T07:10:14.140Z,2.80
2023-05-08T07:12:41.447Z,3.15
2023-05-08T07:15:24.130Z,2.88
2023-05-08T07:17:52.790Z,3.15
2023-05-08T07:20:19.768Z,3.03
2023-05-08T07:22:46.684Z,3.80
2023-05-08T07:25:13.600Z,3.88
2023-05-08T07:27:40.674Z,3.47
2023-05-08T07:30:08.136Z,3.92
2023-05-08T07:32:35.400Z,4.57
2023-05-08T07:35:02.997Z,4.93
2023-05-08T07:37:29.784Z,6.03
2023-05-08T07:39:56.524Z,5.10
2023-05-08T07:42:23.564Z,3.83
2023-05-08T07:44:54.955Z,3.40
2023-05-08T07:47:22.804Z,3.55
2023-05-08T07:49:49.585Z,3.80
2023-05-08T07:52:16.819Z,3.67
2023-05-08T07:54:44.172Z,3.85
2023-05-08T07:57:11.775Z,4.10
2023-05-08T07:59:38.872Z,3.75
2023-05-08T08:02:05.759Z,4.13
2023-05-08T08:04:32.750Z,3.75
2023-05-08T08:06:59.615Z,3.58
2023-05-08T08:09:29.084Z,3.63
2023-05-08T08:11:55.810Z,3.70
2023-05-08T08:14:22.657Z,3.83
2023-05-08T08:16:49.333Z,4.00
2023-05-08T08:19:16.071Z,4.30
2023-05-08T08:21:43.727Z,4.38
2023-05-08T08:24:10.758Z,3.70
2023-05-08T08:26:37.537Z,3.78
2023-05-08T08:29:04.686Z,4.15
2023-05-08T08:31:31.495Z,4.32
2023-05-08T08:33:58.307Z,3.60
2023-05-08T08:36:25.027Z,4.35
2023-05-08T08:38:52.250Z,4.00
2023-05-08T08:41:19.048Z,4.20
2023-05-08T08:43:46.071Z,3.30
2023-05-08T08:46:15.338Z,3.40
2023-05-08T08:48:47.078Z,3.90
2023-05-08T08:51:22.947Z,3.00
2023-05-08T08:54:05.263Z,3.55
2023-05-08T08:56:33.424Z,3.28
2023-05-08T08:59:01.911Z,3.53
2023-05-08T09:01:30.281Z,3.65
2023-05-08T09:03:59.179Z,3.25
2023-05-08T09:06:27.670Z,3.05
2023-05-08T09:08:58.832Z,2.97
2023-05-08T09:11:25.950Z,2.92
2023-05-08T09:13:52.861Z,3.00
2023-05-08T09:16:23.402Z,2.78
2023-05-08T09:21:17.175Z,3.00
2023-05-08T09:24:04.356Z,2.80
2023-05-08T09:26:39.569Z,2.78
2023-05-08T09:29:10.432Z,2.95
2023-05-08T09:31:41.629Z,2.88
2023-05-08T09:34:09.403Z,2.90
2023-05-08T09:36:36.989Z,3.20
2023-05-08T09:39:03.994Z,2.63
2023-05-08T09:41:30.865Z,2.60
2023-05-08T09:44:03.365Z,3.05
2023-05-08T09:46:30.918Z,2.70
2023-05-08T09:48:59.400Z,2.80
2023-05-08T09:51:29.183Z,2.40
2023-05-08T09:53:57.888Z,2.70
2023-05-08T09:56:30.476Z,2.67
2023-05-08T09:58:57.295Z,2.70
2023-05-08T10:01:31.640Z,3.05
2023-05-08T10:03:59.470Z,3.10
2023-05-08T10:06:28.454Z,2.90
2023-05-08T10:09:08.250Z,2.75
2023-05-08T10:11:35.186Z,2.60
2023-05-08T10:14:01.981Z,2.72
2023-05-08T10:16:30.037Z,2.50
2023-05-08T10:19:02.144Z,2.50
2023-05-08T10:21:30.197Z,3.45
2023-05-08T10:24:04.981Z,2.85
2023-05-08T10:26:37.297Z,2.78
2023-05-08T10:29:11.424Z,2.92
2023-05-08T10:31:44.012Z,2.65
2023-05-08T10:34:17.955Z,2.42
2023-05-08T10:36:46.332Z,2.80
2023-05-08T10:39:15.531Z,2.47
2023-05-08T10:41:42.849Z,2.53
2023-05-08T10:44:10.796Z,2.50
2023-05-08T10:46:40.959Z,2.50
2023-05-08T10:49:20.415Z,2.80
2023-05-08T10:52:16.981Z,2.75
2023-05-08T10:55:04.776Z,2.80
2023-05-08T10:57:33.906Z,2.40
2023-05-08T11:00:00.976Z,2.47
2023-05-08T11:02:37.021Z,2.63
2023-05-08T11:05:17.713Z,2.45
2023-05-08T11:07:57.499Z,2.95
2023-05-08T11:10:32.160Z,3.10
2023-05-08T11:13:01.338Z,2.85
2023-05-08T11:15:38.882Z,2.65
2023-05-08T11:18:11.904Z,2.63
2023-05-08T11:20:40.930Z,2.40
2023-05-08T11:23:27.412Z,2.65
2023-05-08T11:26:12.224Z,2.33
2023-05-08T11:28:41.174Z,2.60
2023-05-08T11:31:08.772Z,2.80
2023-05-08T11:33:40.969Z,2.65
2023-05-08T11:36:19.215Z,2.28
2023-05-08T11:39:07.766Z,2.63
2023-05-08T11:41:34.827Z,2.50
2023-05-08T11:44:04.806Z,2.47
2023-05-08T11:46:51.945Z,2.42
2023-05-08T11:49:29.842Z,2.60
2023-05-08T11:51:59.255Z,2.40
2023-05-08T11:54:30.542Z,2.10
2023-05-08T11:56:57.741Z,2.45
2023-05-08T11:59:24.623Z,2.70
2023-05-08T12:04:21.803Z,2.55
2023-05-08T12:06:50.997Z,2.80
2023-05-08T12:09:18.873Z,2.33
2023-05-08T12:11:45.739Z,2.45
2023-05-08T12:14:15.081Z,2.40
2023-05-08T12:16:41.883Z,2.38
2023-05-08T12:19:13.331Z,2.50
2023-05-08T12:21:47.719Z,2.08
2023-05-08T12:24:25.511Z,2.20
2023-05-08T12:26:56.615Z,2.22
2023-05-08T12:29:24.066Z,2.30
2023-05-08T12:31:52.765Z,2.50
2023-05-08T12:34:20.582Z,2.30
2023-05-08T12:36:47.415Z,2.40
2023-05-08T12:39:18.877Z,2.55
2023-05-08T12:41:52.926Z,2.42
2023-05-08T12:44:24.330Z,2.22
2023-05-08T12:46:53.053Z,2.40
2023-05-08T12:49:32.481Z,2.58
2023-05-08T12:52:07.310Z,2.40
2023-05-08T12:54:39.274Z,2.30
2023-05-08T12:57:13.441Z,2.75
2023-05-08T12:59:41.345Z,2.38
2023-05-08T13:02:19.333Z,2.38
2023-05-08T13:04:46.588Z,2.60
2023-05-08T13:07:13.606Z,2.80
2023-05-08T13:09:51.897Z,2.75
2023-05-08T13:12:18.685Z,2.90
2023-05-08T13:14:45.454Z,2.60
2023-05-08T13:17:17.577Z,2.63
2023-05-08T13:19:44.364Z,2.38
2023-05-08T13:22:11.041Z,2.80
2023-05-08T13:24:37.973Z,2.72
2023-05-08T13:27:04.657Z,3.15
2023-05-08T13:29:31.428Z,2.78
2023-05-08T13:31:58.190Z,2.95
2023-05-08T13:34:25.686Z,3.50
2023-05-08T13:36:52.586Z,3.20
2023-05-08T13:39:19.377Z,3.60
2023-05-08T13:41:46.133Z,3.00
2023-05-08T13:44:12.869Z,3.08
2023-05-08T13:46:39.616Z,3.20
2023-05-08T13:49:06.311Z,3.10
2023-05-08T13:51:33.074Z,3.60
2023-05-08T13:53:59.794Z,3.20
2023-05-08T13:56:26.581Z,3.13
2023-05-08T13:58:53.304Z,3.38
2023-05-08T14:01:26.400Z,3.25
2023-05-08T14:03:54.589Z,3.28
2023-05-08T14:06:21.607Z,2.90
2023-05-08T14:08:50.920Z,3.67
2023-05-08T14:11:19.038Z,3.47
2023-05-08T14:13:46.103Z,3.47
2023-05-08T14:16:14.470Z,3.03
2023-05-08T14:18:41.247Z,3.55
2023-05-08T14:21:08.111Z,4.00
2023-05-08T14:23:36.137Z,4.85
2023-05-08T14:26:03.063Z,5.35
2023-05-08T14:28:29.938Z,5.18
2023-05-08T14:30:57.016Z,5.38
2023-05-08T14:33:23.928Z,5.50
2023-05-08T14:35:50.998Z,4.68
2023-05-08T14:38:17.686Z,5.15
2023-05-08T14:40:44.646Z,4.53
2023-05-08T14:43:11.369Z,5.20
2023-05-08T14:45:38.383Z,4.55
2023-05-08T14:48:06.240Z,2.55
2023-05-08T14:50:33.077Z,2.70
2023-05-08T14:53:00.084Z,2.88
2023-05-08T14:55:27.171Z,2.80
2023-05-08T14:57:54.591Z,2.42
2023-05-08T15:00:21.507Z,2.63
2023-05-08T15:02:48.404Z,2.80
2023-05-08T15:05:19.892Z,2.60
2023-05-08T15:07:49.580Z,2.65
2023-05-08T15:10:16.495Z,2.88
2023-05-08T15:12:43.458Z,2.78
2023-05-08T15:15:10.724Z,2.17
2023-05-08T15:17:38.018Z,3.00
2023-05-08T15:20:06.202Z,2.63
2023-05-08T15:22:32.983Z,2.13
2023-05-08T15:25:02.860Z,2.22
2023-05-08T15:27:30.387Z,2.35
2023-05-08T15:29:57.412Z,2.35
2023-05-08T15:32:24.878Z,2.00
2023-05-08T15:34:51.937Z,2.63
2023-05-08T15:37:18.704Z,2.53
2023-05-08T15:39:45.509Z,2.00
2023-05-08T15:42:12.203Z,2.50
2023-05-08T15:44:54.151Z,2.53
2023-05-08T15:49:50.986Z,2.72
2023-05-08T15:52:19.712Z,2.40
2023-05-08T15:54:47.160Z,2.47
2023-05-08T15:57:14.184Z,2.58
2023-05-08T15:59:41.270Z,2.63
2023-05-08T16:02:08.614Z,2.42
2023-05-08T16:04:35.799Z,2.63
2023-05-08T16:07:05.306Z,2.63
2023-05-08T16:09:32.106Z,2.10
2023-05-08T16:12:01.427Z,2.63
2023-05-08T16:14:28.254Z,2.75
2023-05-08T16:16:55.066Z,2.67
2023-05-08T16:19:21.844Z,2.80
2023-05-08T16:21:48.661Z,2.60
2023-05-08T16:24:15.490Z,2.50
2023-05-08T16:26:42.234Z,2.85
2023-05-08T16:29:08.955Z,2.95
2023-05-08T16:31:35.962Z,2.67
2023-05-08T16:34:02.770Z,3.05
2023-05-08T16:36:29.688Z,3.45
2023-05-08T16:38:56.528Z,3.53
2023-05-08T16:41:23.376Z,3.90
2023-05-08T16:43:50.065Z,3.42
2023-05-08T16:46:20.775Z,3.17
2023-05-08T16:51:20.541Z,2.83
2023-05-08T16:53:47.305Z,2.80
2023-05-08T16:56:14.028Z,3.17
2023-05-08T16:58:43.244Z,4.90
2023-05-08T17:01:11.729Z,4.10
2023-05-08T17:03:38.832Z,3.17
2023-05-08T17:06:09.335Z,2.83
2023-05-08T17:08:36.177Z,3.80
2023-05-08T17:11:02.978Z,3.53
2023-05-08T17:13:30.174Z,3.28
2023-05-08T17:15:57.803Z,3.90
2023-05-08T17:18:24.700Z,3.55
2023-05-08T17:20:51.404Z,2.92
2023-05-08T17:23:18.172Z,2.90
2023-05-08T17:25:45.071Z,3.05
2023-05-08T17:28:12.074Z,3.20
2023-05-08T17:30:39.015Z,3.20
2023-05-08T17:33:07.230Z,3.17
2023-05-08T17:35:34.351Z,2.50
2023-05-08T17:38:01.136Z,2.90
2023-05-08T17:40:28.874Z,2.97
2023-05-08T17:42:55.815Z,2.90
2023-05-08T17:45:22.543Z,2.90
2023-05-08T17:47:49.640Z,2.70
2023-05-08T17:50:16.527Z,3.00
2023-05-08T17:52:43.451Z,3.17
2023-05-08T17:55:10.661Z,2.75
2023-05-08T17:57:37.455Z,3.33
2023-05-08T18:00:06.123Z,3.40
2023-05-08T18:02:35.402Z,3.40
2023-05-08T18:05:02.314Z,3.05
2023-05-08T18:07:29.187Z,3.33
2023-05-08T18:09:56.052Z,2.60
2023-05-08T18:12:22.789Z,3.63
2023-05-08T18:14:49.558Z,2.90
2023-05-08T18:17:19.276Z,3.05
2023-05-08T18:19:46.693Z,3.40
2023-05-08T18:22:13.674Z,3.10
2023-05-08T18:24:51.853Z,4.30
2023-05-08T18:30:17.068Z,5.88
2023-05-08T18:32:44.003Z,4.97
2023-05-08T18:35:10.913Z,5.20
2023-05-08T18:37:37.818Z,4.40
2023-05-08T18:40:05.257Z,4.35
2023-05-08T18:42:32.035Z,4.03
2023-05-08T18:45:00.353Z,4.43
2023-05-08T18:47:27.043Z,3.70
2023-05-08T18:49:53.959Z,3.63
2023-05-08T18:52:20.735Z,4.00
2023-05-08T18:54:47.605Z,4.40
2023-05-08T18:57:14.472Z,3.90
2023-05-08T18:59:41.307Z,3.90
2023-05-08T19:02:08.039Z,3.97
2023-05-08T19:04:38.181Z,3.83
2023-05-08T19:07:05.004Z,4.10
2023-05-08T19:09:33.723Z,4.75
2023-05-08T19:12:00.623Z,8.52
2023-05-08T19:14:27.513Z,5.00
2023-05-08T19:16:56.331Z,5.35
2023-05-08T19:19:28.373Z,5.35
2023-05-08T19:21:55.300Z,4.50
2023-05-08T19:24:24.138Z,4.30
2023-05-08T19:26:51.042Z,4.35
2023-05-08T19:29:17.796Z,5.05
2023-05-08T19:31:44.670Z,4.95
2023-05-08T19:34:11.638Z,5.35
2023-05-08T19:36:38.491Z,5.65
2023-05-08T19:39:05.539Z,6.32
2023-05-08T19:41:32.589Z,6.97
2023-05-08T19:43:59.633Z,6.18
2023-05-08T19:46:26.723Z,5.93
2023-05-08T19:48:53.875Z,5.88
2023-05-08T19:51:20.952Z,6.05
2023-05-08T19:53:47.790Z,5.35
2023-05-08T19:56:14.723Z,5.60
2023-05-08T19:58:41.626Z,5.50
2023-05-08T20:01:09.030Z,5.07
2023-05-08T20:03:40.281Z,4.75
2023-05-08T20:06:07.365Z,4.50
2023-05-08T20:08:34.278Z,5.13
2023-05-08T20:11:04.020Z,5.50
2023-05-08T20:13:30.807Z,5.38
2023-05-08T20:15:59.023Z,4.85
2023-05-08T20:18:26.400Z,5.28
2023-05-08T20:20:53.366Z,8.55
2023-05-08T20:23:20.199Z,9.93
2023-05-08T20:25:48.107Z,9.75
2023-05-08T20:28:16.031Z,6.53
2023-05-08T20:30:43.277Z,5.93
2023-05-08T20:33:10.414Z,6.53
2023-05-08T20:35:37.602Z,6.50
2023-05-08T20:38:04.626Z,6.35
2023-05-08T20:40:34.641Z,6.03
2023-05-08T20:43:01.648Z,6.35
2023-05-08T20:45:28.648Z,5.47
2023-05-08T20:47:55.694Z,6.07
2023-05-08T20:50:22.556Z,6.38
2023-05-08T20:52:49.888Z,4.72
2023-05-08T20:55:16.874Z,5.15
2023-05-08T20:57:43.678Z,5.38
2023-05-08T21:00:10.980Z,4.88
2023-05-08T21:02:40.190Z,4.25
2023-05-08T21:05:07.461Z,4.20
2023-05-08T21:07:34.796Z,4.60
2023-05-08T21:10:01.974Z,4.72
2023-05-08T21:12:28.904Z,4.60
2023-05-08T21:14:55.834Z,4.53
2023-05-08T21:17:22.740Z,3.92
2023-05-08T21:19:49.496Z,4.38
2023-05-08T21:22:17.485Z,4.20
2023-05-08T21:24:45.037Z,4.40
2023-05-08T21:27:11.957Z,4.82
2023-05-08T21:29:39.178Z,4.20
2023-05-08T21:32:08.759Z,4.43
2023-05-08T21:34:36.837Z,4.97
2023-05-08T21:37:03.707Z,4.85
2023-05-08T21:39:30.468Z,4.47
2023-05-08T21:41:57.311Z,4.68
2023-05-08T21:44:24.169Z,4.40
2023-05-08T21:46:50.904Z,4.57
2023-05-08T21:49:17.788Z,3.95
2023-05-08T21:51:45.839Z,4.15
2023-05-08T21:54:12.755Z,4.72
2023-05-08T21:56:39.720Z,4.70
2023-05-08T21:59:07.471Z,4.63
2023-05-08T22:01:34.312Z,3.90
2023-05-08T22:04:01.325Z,4.55
2023-05-08T22:06:28.154Z,4.53
2023-05-08T22:08:55.169Z,4.32
2023-05-08T22:11:22.375Z,5.00
2023-05-08T22:13:50.458Z,4.65
2023-05-08T22:16:18.086Z,4.57
2023-05-08T22:18:44.838Z,4.78
2023-05-08T22:21:11.570Z,4.60
2023-05-08T22:23:38.390Z,5.22
2023-05-08T22:26:05.232Z,4.53
2023-05-08T22:28:32.259Z,4.63
2023-05-08T22:30:59.200Z,4.20
2023-05-08T22:33:26.075Z,4.82
2023-05-08T22:35:52.838Z,4.72
2023-05-08T22:38:19.555Z,4.30
2023-05-08T22:40:47.778Z,4.45
2023-05-08T22:43:14.801Z,4.88
2023-05-08T22:45:41.706Z,4.68
2023-05-08T22:48:08.673Z,4.38
2023-05-08T22:50:35.626Z,4.35
2023-05-08T22:53:07.916Z,4.47
2023-05-08T22:55:35.365Z,4.95
2023-05-08T22:58:03.890Z,4.93
2023-05-08T23:00:30.729Z,5.30
2023-05-08T23:02:57.486Z,4.68
2023-05-08T23:05:24.239Z,4.32
2023-05-08T23:07:51.096Z,4.97
2023-05-08T23:10:18.111Z,5.00
2023-05-08T23:12:47.661Z,4.68
2023-05-08T23:15:14.651Z,4.38
2023-05-08T23:17:41.468Z,4.72
2023-05-08T23:20:08.996Z,4.95
2023-05-08T23:22:35.623Z,4.30
2023-05-08T23:25:02.475Z,4.50
2023-05-08T23:27:29.262Z,4.90
2023-05-08T23:29:56.161Z,4.97
2023-05-08T23:32:22.986Z,4.57
2023-05-08T23:34:49.803Z,4.82
2023-05-08T23:37:16.502Z,4.63
2023-05-08T23:39:43.246Z,4.30
2023-05-08T23:42:09.993Z,3.90
2023-05-08T23:44:36.783Z,4.80
2023-05-08T23:47:03.741Z,4.57
2023-05-08T23:49:30.635Z,4.57
2023-05-08T23:51:57.286Z,4.80
2023-05-08T23:54:24.084Z,4.60
2023-05-08T23:56:50.808Z,4.80
2023-05-08T23:59:17.593Z,4.90
